createdAt,value
2018-09-28T00:00:20.461Z,5.39
2018-09-28T00:01:20.383Z,5.42
2018-09-28T00:02:20.322Z,5.42
2018-09-28T00:03:20.290Z,5.57
2018-09-28T00:04:20.253Z,5.60
2018-09-28T00:05:20.215Z,5.65
2018-09-28T00:06:20.188Z,5.49
2018-09-28T00:07:20.129Z,5.57
2018-09-28T00:08:20.105Z,5.45
2018-09-28T00:09:20.046Z,5.39
2018-09-28T00:10:20.006Z,5.42
2018-09-28T00:11:19.972Z,5.48
2018-09-28T00:12:19.964Z,5.38
2018-09-28T00:13:19.887Z,5.35
2018-09-28T00:14:19.854Z,5.42
2018-09-28T00:15:19.800Z,5.45
2018-09-28T00:16:19.749Z,5.53
2018-09-28T00:17:19.712Z,5.64
2018-09-28T00:18:19.696Z,5.51
2018-09-28T00:19:19.671Z,5.49
2018-09-28T00:20:19.585Z,5.57
2018-09-28T00:21:19.555Z,5.56
2018-09-28T00:22:19.497Z,5.49
2018-09-28T00:23:19.472Z,5.54
2018-09-28T00:24:19.421Z,5.42
2018-09-28T00:25:19.384Z,5.36
2018-09-28T00:26:19.367Z,5.39
2018-09-28T00:27:19.294Z,5.35
2018-09-28T00:28:19.255Z,5.22
2018-09-28T00:29:19.205Z,5.39
2018-09-28T00:30:19.172Z,5.31
2018-09-28T00:31:19.143Z,5.42
2018-09-28T00:32:19.086Z,5.43
2018-09-28T00:33:19.033Z,5.48
2018-09-28T00:34:19.011Z,5.56
2018-09-28T00:35:18.968Z,5.46
2018-09-28T00:36:18.922Z,5.48
2018-09-28T00:37:18.895Z,5.39
2018-09-28T00:38:18.849Z,5.31
2018-09-28T00:39:18.818Z,5.28
2018-09-28T00:40:18.764Z,5.20
2018-09-28T00:41:18.715Z,5.12
2018-09-28T00:42:18.658Z,5.06
2018-09-28T00:43:18.625Z,5.03
2018-09-28T00:44:18.575Z,4.92
2018-09-28T00:45:18.541Z,4.94
2018-09-28T00:46:18.489Z,4.92
2018-09-28T00:47:18.465Z,5.03
2018-09-28T00:48:18.428Z,5.12
2018-09-28T00:49:18.380Z,5.18
2018-09-28T00:50:18.333Z,5.24
2018-09-28T00:51:18.296Z,5.30
2018-09-28T00:52:18.273Z,5.31
2018-09-28T00:53:18.196Z,5.20
2018-09-28T00:54:18.173Z,5.17
2018-09-28T00:55:18.129Z,5.22
2018-09-28T00:56:18.082Z,5.18
2018-09-28T00:57:18.051Z,5.22
2018-09-28T00:58:18.001Z,5.22
2018-09-28T00:59:17.961Z,5.20
2018-09-28T01:00:17.911Z,5.30
2018-09-28T01:01:17.875Z,5.25
2018-09-28T01:02:17.840Z,5.28
2018-09-28T01:03:17.803Z,5.24
2018-09-28T01:04:17.754Z,5.18
2018-09-28T01:05:17.709Z,5.20
2018-09-28T01:06:17.748Z,5.28
2018-09-28T01:07:17.609Z,5.20
2018-09-28T01:08:17.567Z,5.20
2018-09-28T01:09:17.534Z,5.25
2018-09-28T01:10:17.491Z,5.31
2018-09-28T01:11:17.454Z,5.28
2018-09-28T01:12:17.416Z,5.22
2018-09-28T01:13:17.358Z,5.21
2018-09-28T01:14:17.342Z,5.21
2018-09-28T01:15:17.302Z,5.17
2018-09-28T01:16:17.263Z,5.06
2018-09-28T01:17:17.210Z,5.12
2018-09-28T01:18:17.185Z,4.91
2018-09-28T01:19:17.134Z,4.91
2018-09-28T01:20:17.063Z,4.86
2018-09-28T01:21:17.056Z,4.94
2018-09-28T01:22:16.989Z,4.91
2018-09-28T01:23:16.962Z,4.80
2018-09-28T01:24:16.901Z,4.91
2018-09-28T01:25:16.879Z,4.70
2018-09-28T01:26:16.839Z,4.73
2018-09-28T01:27:16.794Z,4.84
2018-09-28T01:28:16.758Z,4.77
2018-09-28T01:29:16.715Z,4.70
2018-09-28T01:30:16.654Z,4.72
2018-09-28T01:31:16.603Z,4.92
2018-09-28T01:32:16.570Z,5.12
2018-09-28T01:33:16.533Z,5.20
2018-09-28T01:34:16.492Z,5.04
2018-09-28T01:35:16.454Z,5.03
2018-09-28T01:36:16.439Z,5.00
2018-09-28T01:37:16.348Z,5.03
2018-09-28T01:38:16.343Z,5.07
2018-09-28T01:39:16.295Z,5.20
2018-09-28T01:40:16.240Z,5.25
2018-09-28T01:41:16.211Z,5.09
2018-09-28T01:42:16.167Z,5.10
2018-09-28T01:43:16.106Z,5.15
2018-09-28T01:44:16.065Z,5.15
2018-09-28T01:45:16.030Z,5.24
2018-09-28T01:46:15.989Z,5.27
2018-09-28T01:47:15.956Z,5.27
2018-09-28T01:48:15.880Z,5.12
2018-09-28T01:49:15.856Z,5.03
2018-09-28T01:50:15.823Z,5.04
2018-09-28T01:51:15.786Z,5.00
2018-09-28T01:52:15.774Z,5.02
2018-09-28T01:53:15.737Z,5.07
2018-09-28T01:54:15.655Z,5.07
2018-09-28T01:55:15.594Z,4.91
2018-09-28T01:56:15.586Z,4.92
2018-09-28T01:57:15.530Z,5.04
2018-09-28T01:58:15.482Z,5.06
2018-09-28T01:59:15.453Z,5.13
2018-09-28T02:00:15.409Z,5.07
2018-09-28T02:01:15.349Z,4.99
2018-09-28T02:02:15.306Z,5.07
2018-09-28T02:03:15.300Z,5.04
2018-09-28T02:04:15.358Z,5.04
2018-09-28T02:05:15.202Z,4.97
2018-09-28T02:06:15.134Z,4.94
2018-09-28T02:07:15.098Z,4.94
2018-09-28T02:08:15.052Z,4.92
2018-09-28T02:09:15.030Z,5.04
2018-09-28T02:10:14.989Z,5.02
2018-09-28T02:11:14.941Z,5.00
2018-09-28T02:12:14.883Z,5.02
2018-09-28T02:13:14.881Z,4.92
2018-09-28T02:14:14.816Z,4.88
2018-09-28T02:15:14.776Z,4.84
2018-09-28T02:16:14.753Z,4.86
2018-09-28T02:17:14.664Z,4.97
2018-09-28T02:18:14.656Z,4.91
2018-09-28T02:19:14.611Z,4.89
2018-09-28T02:20:14.553Z,4.75
2018-09-28T02:21:14.516Z,4.67
2018-09-28T02:22:14.494Z,4.75
2018-09-28T02:23:14.429Z,4.67
2018-09-28T02:24:14.378Z,4.70
2018-09-28T02:25:14.360Z,4.63
2018-09-28T02:26:14.303Z,4.66
2018-09-28T02:27:14.259Z,4.70
2018-09-28T02:28:14.210Z,4.65
2018-09-28T02:29:14.167Z,4.65
2018-09-28T02:30:14.140Z,4.58
2018-09-28T02:31:14.081Z,4.62
2018-09-28T02:32:14.100Z,4.75
2018-09-28T02:33:14.001Z,4.75
2018-09-28T02:34:13.965Z,4.75
2018-09-28T02:35:13.917Z,4.86
2018-09-28T02:36:13.904Z,4.84
2018-09-28T02:37:13.852Z,4.69
2018-09-28T02:38:13.807Z,4.69
2018-09-28T02:39:13.730Z,4.73
2018-09-28T02:40:13.700Z,4.66
2018-09-28T02:41:13.682Z,4.70
2018-09-28T02:42:13.625Z,4.73
2018-09-28T02:43:13.602Z,4.91
2018-09-28T02:44:13.561Z,4.89
2018-09-28T02:45:13.494Z,4.88
2018-09-28T02:46:13.464Z,5.03
2018-09-28T02:47:13.412Z,5.03
2018-09-28T02:48:13.391Z,5.07
2018-09-28T02:49:13.323Z,4.94
2018-09-28T02:50:13.283Z,4.89
2018-09-28T02:51:13.224Z,4.91
2018-09-28T02:52:13.238Z,4.88
2018-09-28T02:53:13.169Z,4.97
2018-09-28T02:54:13.241Z,4.97
2018-09-28T02:55:13.105Z,4.91
2018-09-28T02:56:13.017Z,4.86
2018-09-28T02:57:13.000Z,4.69
2018-09-28T02:58:12.945Z,4.60
2018-09-28T02:59:12.898Z,4.62
2018-09-28T03:00:12.849Z,4.63
2018-09-28T03:01:12.828Z,4.55
2018-09-28T03:02:12.764Z,4.62
2018-09-28T03:03:12.730Z,5.02
2018-09-28T03:04:12.718Z,5.06
2018-09-28T03:05:12.636Z,5.04
2018-09-28T03:06:12.661Z,5.03
2018-09-28T03:07:12.600Z,5.02
2018-09-28T03:08:12.537Z,5.04
2018-09-28T03:09:12.506Z,5.06
2018-09-28T03:10:12.458Z,5.02
2018-09-28T03:11:12.375Z,5.04
2018-09-28T03:12:12.349Z,5.04
2018-09-28T03:13:12.317Z,4.96
2018-09-28T03:14:12.266Z,4.97
2018-09-28T03:15:12.218Z,4.88
2018-09-28T03:16:12.197Z,4.80
2018-09-28T03:17:12.150Z,4.66
2018-09-28T03:18:12.097Z,4.65
2018-09-28T03:19:12.100Z,4.62
2018-09-28T03:20:12.023Z,4.73
2018-09-28T03:21:11.975Z,4.66
2018-09-28T03:22:11.928Z,4.89
2018-09-28T03:23:11.909Z,4.70
2018-09-28T03:24:11.841Z,4.73
2018-09-28T03:25:11.801Z,4.67
2018-09-28T03:26:11.754Z,4.65
2018-09-28T03:27:11.787Z,4.65
2018-09-28T03:28:11.692Z,4.67
2018-09-28T03:29:11.640Z,4.72
2018-09-28T03:30:11.624Z,4.73
2018-09-28T03:31:11.646Z,4.82
2018-09-28T03:32:11.522Z,4.94
2018-09-28T03:33:11.470Z,4.82
2018-09-28T03:34:11.559Z,4.73
2018-09-28T03:35:11.395Z,4.67
2018-09-28T03:36:11.343Z,4.69
2018-09-28T03:37:11.297Z,4.84
2018-09-28T03:38:11.254Z,4.94
2018-09-28T03:39:11.224Z,4.86
2018-09-28T03:40:11.154Z,4.82
2018-09-28T03:41:11.142Z,4.84
2018-09-28T03:42:11.086Z,4.84
2018-09-28T03:43:11.049Z,4.89
2018-09-28T03:44:11.001Z,4.92
2018-09-28T03:45:10.985Z,4.99
2018-09-28T03:46:10.927Z,4.89
2018-09-28T03:47:10.896Z,4.75
2018-09-28T03:48:10.832Z,4.70
2018-09-28T03:49:10.781Z,4.65
2018-09-28T03:50:10.743Z,4.60
2018-09-28T03:51:10.695Z,4.67
2018-09-28T03:52:10.659Z,4.70
2018-09-28T03:53:10.632Z,4.73
2018-09-28T03:54:10.574Z,4.60
2018-09-28T03:55:10.546Z,4.60
2018-09-28T03:56:10.482Z,4.72
2018-09-28T03:57:10.458Z,4.80
2018-09-28T03:58:10.422Z,4.94
2018-09-28T03:59:10.355Z,4.88
2018-09-28T04:00:10.349Z,4.85
2018-09-28T04:01:10.299Z,4.84
2018-09-28T04:02:10.263Z,4.77
2018-09-28T04:03:10.213Z,4.69
2018-09-28T04:04:10.156Z,4.63
2018-09-28T04:05:10.110Z,4.69
2018-09-28T04:06:10.149Z,4.65
2018-09-28T04:07:10.026Z,4.60
2018-09-28T04:08:10.010Z,4.65
2018-09-28T04:09:09.940Z,4.54
2018-09-28T04:10:09.948Z,4.45
2018-09-28T04:11:09.876Z,4.47
2018-09-28T04:12:09.820Z,4.51
2018-09-28T04:13:09.774Z,4.47
2018-09-28T04:14:09.733Z,4.47
2018-09-28T04:15:09.738Z,4.42
2018-09-28T04:16:09.649Z,4.41
2018-09-28T04:17:09.629Z,4.42
2018-09-28T04:18:09.553Z,4.40
2018-09-28T04:19:09.548Z,4.40
2018-09-28T04:20:09.498Z,4.29
2018-09-28T04:21:09.558Z,4.32
2018-09-28T04:22:09.402Z,4.33
2018-09-28T04:23:09.370Z,4.37
2018-09-28T04:24:14.654Z,4.44
2018-09-28T04:25:09.270Z,4.58
2018-09-28T04:27:03.851Z,4.63
2018-09-28T04:28:03.801Z,4.58
2018-09-28T04:29:56.767Z,4.47
2018-09-28T04:30:56.798Z,4.42
2018-09-28T04:32:50.294Z,4.52
2018-09-28T04:33:50.251Z,4.60
2018-09-28T04:34:50.124Z,4.65
2018-09-28T04:35:50.133Z,4.63
2018-09-28T04:36:50.008Z,4.54
2018-09-28T04:37:49.961Z,4.51
2018-09-28T04:38:49.914Z,4.44
2018-09-28T04:39:49.890Z,4.55
2018-09-28T04:40:49.829Z,4.58
2018-09-28T04:41:49.796Z,4.54
2018-09-28T04:42:49.763Z,4.48
2018-09-28T04:43:49.731Z,4.50
2018-09-28T04:44:49.681Z,4.62
2018-09-28T04:45:49.623Z,4.63
2018-09-28T04:46:49.692Z,4.66
2018-09-28T04:47:49.534Z,4.52
2018-09-28T04:48:49.523Z,4.62
2018-09-28T04:49:49.494Z,4.50
2018-09-28T04:50:49.434Z,4.36
2018-09-28T04:51:49.411Z,4.30
2018-09-28T04:52:49.324Z,4.32
2018-09-28T04:53:49.328Z,4.30
2018-09-28T04:54:49.240Z,4.23
2018-09-28T04:55:49.964Z,4.29
2018-09-28T04:56:49.160Z,4.12
2018-09-28T04:57:49.149Z,4.11
2018-09-28T04:58:49.083Z,4.04
2018-09-28T04:59:49.059Z,4.04
2018-09-28T05:00:49.003Z,3.98
2018-09-28T05:01:48.953Z,4.06
2018-09-28T05:02:48.896Z,4.00
2018-09-28T05:03:48.870Z,3.97
2018-09-28T05:04:48.853Z,4.00
2018-09-28T05:05:48.772Z,4.00
2018-09-28T05:06:48.764Z,4.02
2018-09-28T05:07:48.730Z,3.96
2018-09-28T05:08:48.669Z,3.98
2018-09-28T05:09:48.602Z,3.98
2018-09-28T05:10:48.555Z,4.00
2018-09-28T05:11:48.518Z,4.00
2018-09-28T05:12:48.469Z,4.16
2018-09-28T05:13:48.481Z,4.23
2018-09-28T05:14:48.400Z,4.36
2018-09-28T05:15:48.354Z,4.44
2018-09-28T05:16:48.317Z,4.51
2018-09-28T05:17:49.069Z,4.55
2018-09-28T05:18:48.249Z,4.47
2018-09-28T05:19:48.258Z,4.59
2018-09-28T05:20:48.135Z,4.55
2018-09-28T05:21:48.102Z,4.48
2018-09-28T05:22:48.093Z,4.50
2018-09-28T05:23:48.036Z,4.41
2018-09-28T05:24:47.984Z,4.37
2018-09-28T05:25:47.928Z,4.41
2018-09-28T05:26:47.908Z,4.55
2018-09-28T05:27:47.865Z,4.60
2018-09-28T05:28:47.816Z,4.55
2018-09-28T05:29:47.766Z,4.58
2018-09-28T05:30:53.968Z,4.52
2018-09-28T05:31:47.779Z,4.54
2018-09-28T05:32:47.737Z,4.54
2018-09-28T05:33:47.573Z,4.47
2018-09-28T05:34:47.582Z,4.40
2018-09-28T05:35:47.526Z,4.45
2018-09-28T05:36:47.469Z,4.41
2018-09-28T05:37:47.461Z,4.41
2018-09-28T05:38:47.395Z,4.42
2018-09-28T05:39:47.414Z,4.40
2018-09-28T05:40:47.372Z,4.51
2018-09-28T05:41:47.259Z,4.59
2018-09-28T05:42:47.275Z,4.69
2018-09-28T05:43:47.399Z,4.69
2018-09-28T05:44:47.124Z,4.78
2018-09-28T05:45:47.073Z,4.91
2018-09-28T05:46:47.101Z,4.88
2018-09-28T05:47:47.000Z,4.86
2018-09-28T05:48:46.934Z,4.85
2018-09-28T05:49:46.940Z,4.86
2018-09-28T05:50:46.885Z,4.88
2018-09-28T05:51:46.843Z,4.84
2018-09-28T05:52:46.772Z,4.78
2018-09-28T05:53:46.724Z,4.89
2018-09-28T05:54:46.688Z,4.75
2018-09-28T05:55:46.678Z,4.91
2018-09-28T05:56:46.597Z,4.85
2018-09-28T05:57:46.568Z,4.91
2018-09-28T05:58:46.534Z,5.04
2018-09-28T05:59:46.582Z,5.13
2018-09-28T06:00:46.467Z,5.07
2018-09-28T06:01:46.394Z,5.15
2018-09-28T06:02:46.366Z,5.21
2018-09-28T06:03:46.299Z,5.25
2018-09-28T06:04:46.283Z,5.25
2018-09-28T06:05:46.220Z,5.36
2018-09-28T06:06:46.188Z,5.43
2018-09-28T06:07:46.138Z,5.54
2018-09-28T06:08:46.092Z,5.56
2018-09-28T06:09:46.048Z,5.60
2018-09-28T06:10:46.015Z,5.65
2018-09-28T06:11:45.974Z,5.68
2018-09-28T06:12:45.951Z,5.89
2018-09-28T06:13:45.933Z,5.83
2018-09-28T06:14:45.896Z,6.06
2018-09-28T06:15:45.806Z,6.37
2018-09-28T06:16:45.771Z,6.67
2018-09-28T06:17:45.753Z,6.85
2018-09-28T06:18:45.729Z,6.76
2018-09-28T06:19:45.770Z,6.69
2018-09-28T06:20:45.610Z,6.66
2018-09-28T06:21:45.558Z,6.62
2018-09-28T06:22:45.534Z,6.55
2018-09-28T06:23:45.515Z,6.55
2018-09-28T06:24:45.441Z,6.55
2018-09-28T06:25:45.428Z,6.51
2018-09-28T06:26:45.354Z,6.44
2018-09-28T06:27:45.351Z,6.43
2018-09-28T06:28:45.257Z,6.38
2018-09-28T06:29:45.252Z,6.56
2018-09-28T06:30:45.189Z,6.52
2018-09-28T06:31:45.180Z,6.71
2018-09-28T06:32:45.153Z,6.70
2018-09-28T06:33:45.070Z,6.62
2018-09-28T06:34:45.039Z,6.69
2018-09-28T06:35:44.998Z,6.66
2018-09-28T06:36:44.948Z,6.77
2018-09-28T06:37:44.936Z,6.87
2018-09-28T06:38:44.947Z,6.85
2018-09-28T06:39:44.845Z,6.97
2018-09-28T06:40:44.757Z,6.91
2018-09-28T06:41:44.760Z,6.89
2018-09-28T06:42:44.719Z,6.98
2018-09-28T06:43:44.678Z,6.98
2018-09-28T06:44:44.692Z,6.89
2018-09-28T06:45:44.579Z,6.99
2018-09-28T06:46:44.522Z,7.07
2018-09-28T06:47:44.486Z,7.09
2018-09-28T06:48:44.449Z,7.24
2018-09-28T06:49:44.393Z,7.31
2018-09-28T06:50:44.383Z,7.45
2018-09-28T06:51:44.314Z,7.50
2018-09-28T06:52:44.280Z,7.71
2018-09-28T06:53:44.309Z,8.15
2018-09-28T06:54:44.202Z,8.59
2018-09-28T06:55:44.153Z,8.86
2018-09-28T06:56:44.120Z,8.96
2018-09-28T06:57:44.201Z,9.10
2018-09-28T06:58:44.054Z,9.17
2018-09-28T06:59:44.016Z,9.40
2018-09-28T07:00:43.957Z,9.48
2018-09-28T07:01:43.937Z,9.61
2018-09-28T07:02:43.881Z,9.75
2018-09-28T07:03:43.860Z,9.99
2018-09-28T07:04:43.814Z,10.09
2018-09-28T07:05:43.834Z,10.26
2018-09-28T07:06:43.740Z,10.41
2018-09-28T07:07:43.713Z,10.74
2018-09-28T07:08:43.666Z,11.03
2018-09-28T07:09:43.630Z,11.35
2018-09-28T07:10:43.566Z,11.79
2018-09-28T07:11:43.558Z,12.19
2018-09-28T07:12:43.498Z,12.74
2018-09-28T07:13:43.496Z,13.10
2018-09-28T07:14:43.414Z,13.48
2018-09-28T07:15:43.368Z,13.89
2018-09-28T07:16:43.407Z,14.40
2018-09-28T07:17:43.337Z,14.95
2018-09-28T07:18:43.306Z,15.14
2018-09-28T07:19:43.238Z,15.54
2018-09-28T07:20:43.210Z,15.87
2018-09-28T07:21:43.184Z,16.11
2018-09-28T07:22:43.151Z,16.01
2018-09-28T07:23:43.132Z,15.89
2018-09-28T07:24:43.117Z,16.02
2018-09-28T07:25:43.031Z,16.01
2018-09-28T07:26:43.011Z,15.97
2018-09-28T07:27:42.978Z,16.20
2018-09-28T07:28:42.939Z,16.12
2018-09-28T07:29:43.501Z,15.97
2018-09-28T07:30:42.866Z,15.82
2018-09-28T07:31:42.862Z,15.67
2018-09-28T07:32:42.794Z,15.44
2018-09-28T07:33:42.768Z,15.14
2018-09-28T07:34:42.741Z,14.89
2018-09-28T07:35:42.763Z,14.65
2018-09-28T07:36:42.808Z,14.28
2018-09-28T07:37:42.642Z,14.15
2018-09-28T07:38:42.630Z,13.87
2018-09-28T07:39:42.573Z,13.79
2018-09-28T07:40:42.525Z,13.75
2018-09-28T07:41:42.543Z,13.73
2018-09-28T07:42:42.468Z,13.64
2018-09-28T07:43:42.449Z,13.46
2018-09-28T07:44:42.395Z,13.39
2018-09-28T07:45:42.346Z,13.41
2018-09-28T07:46:42.320Z,13.42
2018-09-28T07:47:43.052Z,13.59
2018-09-28T07:48:42.314Z,13.70
2018-09-28T07:49:42.252Z,13.99
2018-09-28T07:50:42.192Z,14.29
2018-09-28T07:51:42.185Z,14.83
2018-09-28T07:52:42.117Z,15.28
2018-09-28T07:53:42.126Z,15.67
2018-09-28T07:54:42.050Z,15.75
2018-09-28T07:55:42.051Z,16.25
2018-09-28T07:56:42.006Z,16.21
2018-09-28T07:57:41.941Z,16.38
2018-09-28T07:58:41.916Z,16.31
2018-09-28T07:59:41.890Z,16.12
2018-09-28T08:00:41.862Z,15.96
2018-09-28T08:01:41.820Z,15.87
2018-09-28T08:02:41.771Z,15.71
2018-09-28T08:03:41.756Z,15.62
2018-09-28T08:04:41.723Z,15.47
2018-09-28T08:05:41.677Z,15.38
2018-09-28T08:06:41.686Z,15.25
2018-09-28T08:07:41.603Z,15.27
2018-09-28T08:08:41.566Z,15.31
2018-09-28T08:09:41.542Z,15.47
2018-09-28T08:10:41.497Z,15.50
2018-09-28T08:11:41.498Z,15.68
2018-09-28T08:12:41.440Z,15.72
2018-09-28T08:13:41.440Z,16.07
2018-09-28T08:14:41.365Z,16.45
2018-09-28T08:15:41.356Z,16.75
2018-09-28T08:16:41.304Z,17.00
2018-09-28T08:17:41.274Z,17.40
2018-09-28T08:18:41.239Z,17.75
2018-09-28T08:19:41.196Z,17.99
2018-09-28T08:20:41.157Z,18.32
2018-09-28T08:21:41.153Z,18.27
2018-09-28T08:22:41.115Z,18.42
2018-09-28T08:23:41.077Z,18.32
2018-09-28T08:24:41.048Z,18.35
2018-09-28T08:25:41.013Z,18.65
2018-09-28T08:26:41.000Z,18.58
2018-09-28T08:27:40.943Z,18.72
2018-09-28T08:28:40.921Z,19.00
2018-09-28T08:29:40.889Z,19.08
2018-09-28T08:30:40.854Z,19.08
2018-09-28T08:31:40.808Z,19.25
2018-09-28T08:32:40.789Z,19.06
2018-09-28T08:33:40.799Z,18.60
2018-09-28T08:34:40.734Z,18.52
2018-09-28T08:35:40.679Z,18.37
2018-09-28T08:36:40.694Z,18.36
2018-09-28T08:37:40.648Z,18.32
2018-09-28T08:38:40.591Z,18.29
2018-09-28T08:39:40.558Z,18.54
2018-09-28T08:40:40.520Z,18.45
2018-09-28T08:41:40.524Z,18.39
2018-09-28T08:42:40.453Z,18.36
2018-09-28T08:43:40.465Z,18.12
2018-09-28T08:44:40.488Z,17.95
2018-09-28T08:45:41.019Z,18.03
2018-09-28T08:46:40.364Z,18.12
2018-09-28T08:47:40.292Z,18.60
2018-09-28T08:48:40.256Z,18.58
2018-09-28T08:49:40.245Z,19.29
2018-09-28T08:50:40.225Z,19.65
2018-09-28T08:51:40.217Z,19.80
2018-09-28T08:52:40.136Z,20.08
2018-09-28T08:53:40.114Z,19.87
2018-09-28T08:54:40.062Z,19.76
2018-09-28T08:55:40.040Z,19.50
2018-09-28T08:56:40.009Z,19.39
2018-09-28T08:57:39.985Z,19.40
2018-09-28T08:58:39.993Z,19.40
2018-09-28T08:59:39.902Z,19.32
2018-09-28T09:00:39.900Z,19.28
2018-09-28T09:01:39.858Z,19.29
2018-09-28T09:02:39.806Z,19.26
2018-09-28T09:03:40.596Z,18.94
2018-09-28T09:04:39.754Z,18.82
2018-09-28T09:05:39.736Z,18.58
2018-09-28T09:06:39.693Z,18.47
2018-09-28T09:07:39.666Z,18.35
2018-09-28T09:08:39.663Z,18.11
2018-09-28T09:09:39.611Z,17.97
2018-09-28T09:10:39.574Z,17.92
2018-09-28T09:11:39.552Z,18.26
2018-09-28T09:12:39.524Z,18.45
2018-09-28T09:13:39.485Z,18.47
2018-09-28T09:14:39.487Z,18.39
2018-09-28T09:15:39.430Z,18.75
2018-09-28T09:16:39.392Z,18.60
2018-09-28T09:17:39.363Z,18.44
2018-09-28T09:18:39.326Z,18.37
2018-09-28T09:19:39.290Z,18.25
2018-09-28T09:20:39.266Z,17.90
2018-09-28T09:21:39.227Z,17.81
2018-09-28T09:22:39.198Z,17.30
2018-09-28T09:23:39.191Z,17.11
2018-09-28T09:24:39.141Z,17.11
2018-09-28T09:25:39.125Z,17.01
2018-09-28T09:26:39.073Z,17.08
2018-09-28T09:27:39.040Z,17.25
2018-09-28T09:28:39.030Z,17.26
2018-09-28T09:29:38.969Z,17.44
2018-09-28T09:30:38.942Z,17.54
2018-09-28T09:31:38.920Z,17.71
2018-09-28T09:32:38.884Z,17.68
2018-09-28T09:33:38.848Z,17.75
2018-09-28T09:34:38.828Z,17.87
2018-09-28T09:35:38.793Z,17.96
2018-09-28T09:36:38.824Z,18.03
2018-09-28T09:37:38.731Z,18.20
2018-09-28T09:38:38.692Z,18.30
2018-09-28T09:39:38.685Z,18.23
2018-09-28T09:40:38.635Z,18.25
2018-09-28T09:41:38.656Z,18.32
2018-09-28T09:42:38.598Z,18.60
2018-09-28T09:43:38.550Z,18.94
2018-09-28T09:44:38.522Z,19.37
2018-09-28T09:45:38.489Z,18.88
2018-09-28T09:46:38.469Z,18.47
2018-09-28T09:47:38.421Z,18.32
2018-09-28T09:48:38.384Z,18.12
2018-09-28T09:49:38.337Z,18.37
2018-09-28T09:50:38.306Z,18.63
2018-09-28T09:51:38.281Z,18.32
2018-09-28T09:52:38.275Z,18.20
2018-09-28T09:53:38.221Z,18.07
2018-09-28T09:54:38.176Z,17.99
2018-09-28T09:55:38.174Z,17.89
2018-09-28T09:56:38.133Z,17.78
2018-09-28T09:57:38.186Z,17.63
2018-09-28T09:58:38.063Z,17.36
2018-09-28T09:59:38.020Z,17.11
2018-09-28T10:00:37.994Z,16.79
2018-09-28T10:01:37.984Z,16.49
2018-09-28T10:02:37.958Z,16.30
2018-09-28T10:03:37.921Z,16.20
2018-09-28T10:04:37.893Z,16.08
2018-09-28T10:05:37.853Z,16.00
2018-09-28T10:06:37.810Z,15.89
2018-09-28T10:07:37.768Z,15.80
2018-09-28T10:08:37.752Z,15.92
2018-09-28T10:09:37.731Z,15.87
2018-09-28T10:10:37.697Z,16.08
2018-09-28T10:11:37.651Z,16.17
2018-09-28T10:12:37.709Z,16.25
2018-09-28T10:13:37.579Z,16.04
2018-09-28T10:14:37.559Z,15.86
2018-09-28T10:15:37.545Z,15.80
2018-09-28T10:16:37.546Z,15.67
2018-09-28T10:17:37.485Z,15.56
2018-09-28T10:18:38.071Z,15.23
2018-09-28T10:19:37.606Z,15.23
2018-09-28T10:20:37.406Z,15.16
2018-09-28T10:21:37.321Z,15.01
2018-09-28T10:22:37.287Z,14.98
2018-09-28T10:23:37.308Z,14.99
2018-09-28T10:24:37.241Z,14.94
2018-09-28T10:25:37.199Z,14.69
2018-09-28T10:26:37.215Z,14.69
2018-09-28T10:27:37.144Z,14.64
2018-09-28T10:28:37.231Z,14.69
2018-09-28T10:29:37.076Z,14.61
2018-09-28T10:30:37.031Z,14.46
2018-09-28T10:31:36.984Z,14.37
2018-09-28T10:32:36.964Z,14.47
2018-09-28T10:33:37.003Z,14.47
2018-09-28T10:34:36.926Z,14.46
2018-09-28T10:35:36.899Z,14.42
2018-09-28T10:36:36.820Z,14.36
2018-09-28T10:37:36.769Z,14.28
2018-09-28T10:38:36.750Z,14.29
2018-09-28T10:39:36.781Z,14.22
2018-09-28T10:40:36.759Z,14.28
2018-09-28T10:41:36.678Z,14.17
2018-09-28T10:42:36.614Z,14.17
2018-09-28T10:43:36.599Z,14.09
2018-09-28T10:44:36.543Z,14.10
2018-09-28T10:45:36.542Z,14.21
2018-09-28T10:46:36.597Z,14.25
2018-09-28T10:47:36.458Z,14.18
2018-09-28T10:48:36.402Z,14.10
2018-09-28T10:49:36.382Z,14.07
2018-09-28T10:50:36.342Z,13.97
2018-09-28T10:51:36.345Z,13.99
2018-09-28T10:52:36.328Z,13.87
2018-09-28T10:53:36.231Z,13.88
2018-09-28T10:54:36.223Z,13.87
2018-09-28T10:55:36.141Z,13.79
2018-09-28T10:56:36.136Z,13.92
2018-09-28T10:57:36.082Z,13.87
2018-09-28T10:58:36.121Z,13.88
2018-09-28T10:59:36.010Z,13.82
2018-09-28T11:00:35.985Z,13.75
2018-09-28T11:01:35.948Z,13.78
2018-09-28T11:02:35.931Z,13.71
2018-09-28T11:03:35.895Z,13.66
2018-09-28T11:04:35.814Z,13.67
2018-09-28T11:05:35.894Z,13.60
2018-09-28T11:06:35.751Z,13.64
2018-09-28T11:07:35.720Z,13.51
2018-09-28T11:08:35.749Z,13.59
2018-09-28T11:09:35.731Z,13.57
2018-09-28T11:10:35.651Z,13.57
2018-09-28T11:11:35.615Z,13.64
2018-09-28T11:12:35.548Z,13.67
2018-09-28T11:13:35.526Z,13.70
2018-09-28T11:14:35.511Z,13.70
2018-09-28T11:15:35.495Z,13.79
2018-09-28T11:16:35.438Z,13.67
2018-09-28T11:17:35.359Z,13.57
2018-09-28T11:18:35.328Z,13.62
2018-09-28T11:19:35.303Z,13.54
2018-09-28T11:20:35.259Z,13.48
2018-09-28T11:21:35.258Z,13.46
2018-09-28T11:22:35.191Z,13.52
2018-09-28T11:23:35.142Z,13.62
2018-09-28T11:24:35.098Z,13.63
2018-09-28T11:25:35.088Z,13.77
2018-09-28T11:26:35.040Z,13.75
2018-09-28T11:27:35.007Z,13.71
2018-09-28T11:28:34.980Z,13.84
2018-09-28T11:29:34.927Z,13.71
2018-09-28T11:30:34.888Z,13.82
2018-09-28T11:31:34.842Z,13.79
2018-09-28T11:32:34.820Z,13.85
2018-09-28T11:33:34.820Z,13.84
2018-09-28T11:34:34.756Z,13.70
2018-09-28T11:35:34.710Z,13.67
2018-09-28T11:36:34.721Z,13.69
2018-09-28T11:37:34.677Z,13.67
2018-09-28T11:38:34.639Z,13.73
2018-09-28T11:39:34.601Z,13.63
2018-09-28T11:40:34.562Z,13.64
2018-09-28T11:41:34.520Z,13.81
2018-09-28T11:42:34.462Z,13.91
2018-09-28T11:43:34.427Z,13.99
2018-09-28T11:44:34.373Z,13.92
2018-09-28T11:45:34.401Z,13.89
2018-09-28T11:46:34.314Z,13.75
2018-09-28T11:47:34.281Z,13.89
2018-09-28T11:48:34.253Z,13.81
2018-09-28T11:49:34.231Z,13.92
2018-09-28T11:50:34.156Z,13.84
2018-09-28T11:51:34.166Z,13.88
2018-09-28T11:52:34.087Z,13.92
2018-09-28T11:53:34.078Z,13.88
2018-09-28T11:54:34.030Z,13.91
2018-09-28T11:55:33.985Z,13.95
2018-09-28T11:56:33.940Z,13.91
2018-09-28T11:57:33.999Z,13.87
2018-09-28T11:58:33.916Z,13.87
2018-09-28T11:59:33.847Z,13.79
2018-09-28T12:00:33.828Z,13.77
2018-09-28T12:01:33.807Z,13.57
2018-09-28T12:02:33.743Z,13.66
2018-09-28T12:03:33.778Z,13.78
2018-09-28T12:04:33.662Z,13.88
2018-09-28T12:05:33.665Z,13.77
2018-09-28T12:06:33.688Z,13.82
2018-09-28T12:07:33.544Z,13.62
2018-09-28T12:08:33.538Z,13.60
2018-09-28T12:09:33.499Z,13.63
2018-09-28T12:10:33.438Z,13.64
2018-09-28T12:11:33.434Z,13.69
2018-09-28T12:12:33.454Z,13.64
2018-09-28T12:13:33.380Z,13.62
2018-09-28T12:14:33.309Z,13.62
2018-09-28T12:15:33.334Z,13.57
2018-09-28T12:16:33.240Z,13.63
2018-09-28T12:17:33.185Z,13.60
2018-09-28T12:18:33.203Z,13.54
2018-09-28T12:19:33.148Z,13.60
2018-09-28T12:20:33.098Z,13.63
2018-09-28T12:21:33.106Z,13.63
2018-09-28T12:22:33.005Z,13.71
2018-09-28T12:23:32.996Z,13.67
2018-09-28T12:24:33.048Z,13.77
2018-09-28T12:25:32.898Z,13.70
2018-09-28T12:26:32.882Z,13.67
2018-09-28T12:27:32.869Z,13.81
2018-09-28T12:28:32.820Z,13.84
2018-09-28T12:29:32.750Z,13.88
2018-09-28T12:30:32.797Z,14.00
2018-09-28T12:31:32.674Z,14.17
2018-09-28T12:32:32.654Z,14.17
2018-09-28T12:33:32.648Z,14.25
2018-09-28T12:34:32.568Z,14.27
2018-09-28T12:35:32.568Z,14.32
2018-09-28T12:36:32.506Z,14.28
2018-09-28T12:37:32.478Z,14.28
2018-09-28T12:38:32.429Z,14.22
2018-09-28T12:39:32.464Z,14.21
2018-09-28T12:40:32.368Z,14.20
2018-09-28T12:41:32.327Z,14.22
2018-09-28T12:42:32.303Z,14.07
2018-09-28T12:43:35.033Z,14.03
2018-09-28T12:44:32.235Z,14.03
2018-09-28T12:45:32.230Z,14.03
2018-09-28T12:46:32.159Z,14.07
2018-09-28T12:47:32.111Z,14.10
2018-09-28T12:48:32.128Z,14.18
2018-09-28T12:49:32.036Z,14.28
2018-09-28T12:50:32.034Z,14.27
2018-09-28T12:51:32.003Z,14.27
2018-09-28T12:52:31.930Z,14.18
2018-09-28T12:53:31.930Z,14.28
2018-09-28T12:54:31.857Z,14.40
2018-09-28T12:55:31.813Z,14.42
2018-09-28T12:56:31.795Z,14.55
2018-09-28T12:57:31.762Z,14.62
2018-09-28T12:58:31.707Z,14.51
2018-09-28T12:59:31.668Z,14.42
2018-09-28T13:00:31.691Z,14.54
2018-09-28T13:01:31.602Z,14.39
2018-09-28T13:02:31.614Z,14.52
2018-09-28T13:03:31.527Z,14.60
2018-09-28T13:04:31.511Z,14.73
2018-09-28T13:05:31.462Z,15.02
2018-09-28T13:06:31.488Z,15.06
2018-09-28T13:07:31.402Z,14.98
2018-09-28T13:08:31.405Z,14.89